Time;durP1;ratioP1;P1;durP2;ratioP2;P2;SDS_P1;SDS_P2;PMS_P1;PMS_P2;Temp;Humidity;BMP_temperature;BMP_pressure;BME280_temperature;BME280_humidity;BME280_pressure;Samples;Min_cycle;Max_cycle;Signal;HPM_P1;HPM_P2
2022/07/21 00:00:24;;;;;;;13.40;6.38;;;;;;;;;;6268178;22;20026;-80
2022/07/21 00:02:51;;;;;;;11.25;6.47;;;;;;;;;;6269202;22;20019;-81
2022/07/21 00:05:17;;;;;;;10.25;6.38;;;;;;;;;;6215995;22;20016;-80
2022/07/21 00:07:44;;;;;;;13.20;6.72;;;;;;;;;;6240851;22;20026;-80
2022/07/21 00:10:11;;;;;;;10.35;6.40;;;;;;;;;;6215319;22;20015;-79
2022/07/21 00:12:37;;;;;;;12.65;6.35;;;;;;;;;;6268911;22;20548;-81
2022/07/21 00:15:04;;;;;;;16.65;6.53;;;;;;;;;;6268135;22;20381;-81
2022/07/21 00:17:30;;;;;;;13.43;6.20;;;;;;;;;;6268794;22;20027;-80
2022/07/21 00:19:59;;;;;;;13.02;6.47;;;;;;;;;;6239764;22;20019;-80
2022/07/21 00:22:26;;;;;;;12.45;6.30;;;;;;;;;;6267983;22;20023;-80
2022/07/21 00:24:52;;;;;;;11.27;6.22;;;;;;;;;;6267686;22;20020;-81
2022/07/21 00:27:18;;;;;;;12.02;6.15;;;;;;;;;;6267148;22;20098;-80
2022/07/21 00:29:44;;;;;;;12.45;6.13;;;;;;;;;;6267398;22;20026;-80
2022/07/21 00:32:10;;;;;;;12.80;6.35;;;;;;;;;;6239847;22;20321;-80
2022/07/21 00:34:36;;;;;;;12.88;6.50;;;;;;;;;;6241786;22;20455;-80
2022/07/21 00:37:02;;;;;;;11.80;6.63;;;;;;;;;;6267660;22;20452;-80
2022/07/21 00:39:29;;;;;;;11.82;5.97;;;;;;;;;;6214869;22;20461;-80
2022/07/21 00:41:55;;;;;;;12.07;6.22;;;;;;;;;;6267206;22;20549;-80
2022/07/21 00:44:22;;;;;;;11.90;6.47;;;;;;;;;;6267943;22;20460;-80
2022/07/21 00:46:48;;;;;;;17.23;7.05;;;;;;;;;;6241532;22;20550;-80
2022/07/21 00:49:14;;;;;;;20.70;7.45;;;;;;;;;;6266664;22;20032;-80
2022/07/21 00:51:40;;;;;;;16.35;7.47;;;;;;;;;;6268699;22;20028;-80
2022/07/21 00:54:06;;;;;;;15.82;7.88;;;;;;;;;;6266810;22;20598;-80
2022/07/21 00:56:32;;;;;;;11.60;7.13;;;;;;;;;;6267469;22;20550;-81
2022/07/21 00:58:58;;;;;;;14.07;7.55;;;;;;;;;;6267289;22;20015;-80
2022/07/21 01:01:25;;;;;;;11.02;6.60;;;;;;;;;;6268178;22;20099;-79
2022/07/21 01:03:51;;;;;;;13.32;7.13;;;;;;;;;;6240591;22;20391;-80
2022/07/21 01:06:17;;;;;;;11.73;6.07;;;;;;;;;;6215186;22;20030;-80
2022/07/21 01:08:43;;;;;;;13.77;6.45;;;;;;;;;;6267295;22;20343;-81
2022/07/21 01:11:09;;;;;;;14.20;6.03;;;;;;;;;;6240395;22;20841;-79
2022/07/21 01:13:41;;;;;;;12.52;6.18;;;;;;;;;;6268225;22;20348;-80
2022/07/21 01:16:07;;;;;;;14.70;6.75;;;;;;;;;;6266479;22;20354;-81
2022/07/21 01:18:33;;;;;;;19.13;8.25;;;;;;;;;;6240018;22;20026;-82
2022/07/21 01:21:02;;;;;;;16.45;7.85;;;;;;;;;;6239560;22;20015;-83
2022/07/21 01:23:29;;;;;;;20.80;8.23;;;;;;;;;;6213810;22;20075;-81
2022/07/21 01:25:55;;;;;;;39.42;13.77;;;;;;;;;;6215204;22;20016;-81
2022/07/21 01:28:21;;;;;;;53.60;17.67;;;;;;;;;;6240355;22;20075;-80
2022/07/21 01:30:47;;;;;;;57.78;19.10;;;;;;;;;;6240518;22;20080;-81
2022/07/21 01:33:13;;;;;;;41.25;16.77;;;;;;;;;;6266570;22;20692;-80
2022/07/21 01:35:39;;;;;;;25.02;13.32;;;;;;;;;;6256935;22;20114;-81
2022/07/21 01:41:28;;;;;;;35.35;17.00;;;;;;;;;;6265984;22;20015;-80
2022/07/21 01:43:41;;;;;;;25.95;14.90;;;;;;;;;;6269083;22;20073;-80
2022/07/21 01:46:10;;;;;;;31.42;16.27;;;;;;;;;;6240126;22;20467;-81
2022/07/21 01:48:36;;;;;;;28.65;15.70;;;;;;;;;;6269047;22;20020;-81
2022/07/21 01:51:02;;;;;;;24.92;15.20;;;;;;;;;;6267932;22;20554;-80
2022/07/21 01:53:28;;;;;;;38.15;19.55;;;;;;;;;;6268249;22;20048;-79
2022/07/21 01:55:54;;;;;;;29.70;16.33;;;;;;;;;;6268221;22;20020;-80
2022/07/21 01:58:23;;;;;;;29.27;17.42;;;;;;;;;;6243126;22;20016;-81
2022/07/21 02:00:49;;;;;;;50.67;23.42;;;;;;;;;;6267771;22;20058;-80
2022/07/21 02:03:15;;;;;;;32.30;20.65;;;;;;;;;;6241205;22;20027;-80
2022/07/21 02:05:41;;;;;;;37.90;18.95;;;;;;;;;;6268167;22;20012;-82
2022/07/21 02:08:13;;;;;;;53.00;24.15;;;;;;;;;;6267866;22;20023;-81
2022/07/21 02:10:39;;;;;;;53.00;22.63;;;;;;;;;;6268266;22;20049;-80
2022/07/21 02:13:05;;;;;;;44.83;19.90;;;;;;;;;;6216351;22;20024;-78
2022/07/21 02:15:32;;;;;;;33.40;16.42;;;;;;;;;;6268807;22;20026;-80
2022/07/21 02:17:59;;;;;;;46.50;18.48;;;;;;;;;;6239175;22;20015;-82
2022/07/21 02:20:25;;;;;;;32.42;18.17;;;;;;;;;;6268655;22;20106;-81
2022/07/21 02:22:57;;;;;;;32.25;17.88;;;;;;;;;;6268691;22;20476;-81
2022/07/21 02:25:23;;;;;;;42.22;20.23;;;;;;;;;;6269841;22;20085;-80
2022/07/21 02:27:49;;;;;;;37.63;18.58;;;;;;;;;;6269019;22;20019;-80
2022/07/21 02:30:16;;;;;;;33.72;18.65;;;;;;;;;;6191974;22;20913;-79
2022/07/21 02:32:48;;;;;;;36.17;18.08;;;;;;;;;;6267506;22;20011;-81
2022/07/21 02:35:14;;;;;;;32.67;20.92;;;;;;;;;;6267311;22;20027;-79
2022/07/21 02:37:49;;;;;;;35.55;18.27;;;;;;;;;;6241508;22;20011;-79
2022/07/21 02:40:15;;;;;;;31.50;18.80;;;;;;;;;;6215467;22;20023;-81
2022/07/21 02:42:42;;;;;;;34.45;19.40;;;;;;;;;;6268646;22;20403;-80
2022/07/21 02:45:08;;;;;;;26.33;19.20;;;;;;;;;;6215137;22;20050;-82
2022/07/21 02:47:50;;;;;;;41.92;22.50;;;;;;;;;;6269478;22;20043;-82
2022/07/21 02:50:17;;;;;;;28.33;17.30;;;;;;;;;;6267015;22;20042;-81
2022/07/21 02:52:43;;;;;;;30.20;19.95;;;;;;;;;;6268194;22;20050;-79
2022/07/21 02:55:09;;;;;;;33.15;21.33;;;;;;;;;;6215447;22;20373;-80
2022/07/21 02:57:35;;;;;;;29.02;19.83;;;;;;;;;;6268897;22;20164;-81
2022/07/21 03:00:02;;;;;;;32.03;19.15;;;;;;;;;;6268441;22;20019;-82
2022/07/21 03:02:28;;;;;;;29.23;18.83;;;;;;;;;;6267865;22;20022;-81
2022/07/21 03:04:54;;;;;;;31.30;20.83;;;;;;;;;;6241877;22;20023;-82
2022/07/21 03:07:26;;;;;;;32.95;22.35;;;;;;;;;;6240885;22;20026;-82
2022/07/21 03:09:52;;;;;;;41.38;23.58;;;;;;;;;;6242812;22;20032;-81
2022/07/21 03:12:18;;;;;;;41.15;24.02;;;;;;;;;;6215366;22;20099;-81
2022/07/21 03:14:44;;;;;;;43.15;25.75;;;;;;;;;;6269406;22;20024;-80
2022/07/21 03:17:11;;;;;;;38.88;24.25;;;;;;;;;;6268656;22;20020;-81
2022/07/21 03:22:36;;;;;;;39.08;24.45;;;;;;;;;;6268182;22;20019;-83
2022/07/21 03:25:05;;;;;;;36.42;23.33;;;;;;;;;;6242886;22;20016;-80
2022/07/21 03:27:35;;;;;;;42.70;26.35;;;;;;;;;;6272247;22;20015;-81
2022/07/21 03:30:07;;;;;;;36.53;24.08;;;;;;;;;;6244657;22;20023;-80
2022/07/21 03:32:33;;;;;;;38.72;24.23;;;;;;;;;;6286756;22;20095;-81
2022/07/21 03:34:59;;;;;;;35.55;22.90;;;;;;;;;;6286282;22;20043;-80
2022/07/21 03:37:25;;;;;;;33.92;23.55;;;;;;;;;;6259002;22;20020;-81
2022/07/21 03:39:51;;;;;;;32.20;22.48;;;;;;;;;;6284075;22;20023;-82
2022/07/21 03:42:17;;;;;;;33.97;22.13;;;;;;;;;;6274106;22;20015;-79
2022/07/21 03:44:43;;;;;;;32.55;22.00;;;;;;;;;;6242667;22;20020;-82
2022/07/21 03:47:09;;;;;;;34.80;21.85;;;;;;;;;;6267586;22;20029;-83
2022/07/21 03:49:36;;;;;;;31.23;21.33;;;;;;;;;;6216757;22;20163;-83
2022/07/21 03:52:02;;;;;;;36.13;22.63;;;;;;;;;;6266199;22;20012;-80
2022/07/21 03:54:31;;;;;;;29.05;20.58;;;;;;;;;;6269814;22;20023;-83
2022/07/21 03:56:57;;;;;;;31.38;21.50;;;;;;;;;;6266415;22;20053;-82
2022/07/21 03:59:23;;;;;;;28.05;20.08;;;;;;;;;;6241876;22;20019;-81
2022/07/21 04:01:49;;;;;;;27.75;20.30;;;;;;;;;;6213797;22;20015;-82
2022/07/21 04:04:15;;;;;;;30.27;20.40;;;;;;;;;;6240188;22;20024;-81
2022/07/21 04:06:42;;;;;;;32.22;20.52;;;;;;;;;;6239769;22;20026;-81
2022/07/21 04:09:08;;;;;;;28.92;20.75;;;;;;;;;;6267253;22;20019;-80
2022/07/21 04:11:34;;;;;;;29.52;21.05;;;;;;;;;;6265365;22;20095;-81
2022/07/21 04:14:00;;;;;;;29.33;20.67;;;;;;;;;;6265795;22;20022;-81
2022/07/21 04:16:27;;;;;;;29.60;20.83;;;;;;;;;;6240467;22;20024;-82
2022/07/21 04:18:53;;;;;;;30.65;22.27;;;;;;;;;;6265578;22;20039;-80
2022/07/21 04:21:19;;;;;;;27.58;20.58;;;;;;;;;;6264873;22;20356;-82
2022/07/21 04:23:45;;;;;;;31.65;21.98;;;;;;;;;;6265020;22;20069;-81
2022/07/21 04:26:11;;;;;;;31.75;20.48;;;;;;;;;;6239070;22;20023;-82
2022/07/21 04:28:37;;;;;;;27.40;19.42;;;;;;;;;;6239072;22;20051;-81
2022/07/21 04:31:03;;;;;;;27.58;19.98;;;;;;;;;;6265546;22;20031;-82
2022/07/21 04:33:29;;;;;;;32.28;21.95;;;;;;;;;;6267112;22;20031;-79
2022/07/21 04:35:55;;;;;;;29.40;22.13;;;;;;;;;;6265792;22;20023;-81
2022/07/21 04:38:21;;;;;;;37.35;22.73;;;;;;;;;;6266750;22;20335;-81
2022/07/21 04:40:47;;;;;;;39.25;24.50;;;;;;;;;;6265008;22;20027;-82
2022/07/21 04:43:13;;;;;;;34.65;24.20;;;;;;;;;;6214172;22;20019;-81
2022/07/21 04:45:40;;;;;;;40.58;25.20;;;;;;;;;;6265918;22;20026;-84
2022/07/21 04:48:06;;;;;;;38.30;24.92;;;;;;;;;;6265289;22;20421;-81
2022/07/21 04:50:32;;;;;;;31.83;23.88;;;;;;;;;;6265232;22;20466;-81
2022/07/21 04:53:04;;;;;;;31.00;23.75;;;;;;;;;;6267627;22;20022;-80
2022/07/21 04:55:30;;;;;;;30.65;22.30;;;;;;;;;;6238195;22;20019;-81
2022/07/21 04:57:58;;;;;;;32.10;24.52;;;;;;;;;;6267046;22;20023;-82
2022/07/21 05:00:25;;;;;;;39.40;26.13;;;;;;;;;;6238954;22;20478;-80
2022/07/21 05:02:51;;;;;;;34.10;25.95;;;;;;;;;;6236106;22;20020;-82
2022/07/21 05:05:18;;;;;;;43.95;27.75;;;;;;;;;;6265457;22;20015;-80
2022/07/21 05:07:44;;;;;;;36.53;26.33;;;;;;;;;;6266587;22;20034;-82
2022/07/21 05:10:12;;;;;;;35.45;24.98;;;;;;;;;;6214786;22;20022;-81
2022/07/21 05:12:38;;;;;;;36.83;25.50;;;;;;;;;;6265799;22;20331;-81
2022/07/21 05:15:05;;;;;;;29.83;24.45;;;;;;;;;;6239870;22;20354;-82
2022/07/21 05:17:37;;;;;;;34.33;25.77;;;;;;;;;;6264648;22;20090;-79
2022/07/21 05:20:04;;;;;;;33.25;25.70;;;;;;;;;;6239726;22;20054;-82
2022/07/21 05:22:30;;;;;;;41.05;26.70;;;;;;;;;;6266763;22;20464;-81
2022/07/21 05:24:56;;;;;;;38.08;27.23;;;;;;;;;;6266459;22;20023;-81
2022/07/21 05:27:23;;;;;;;37.55;26.63;;;;;;;;;;6267078;22;20020;-81
2022/07/21 05:29:49;;;;;;;37.28;28.58;;;;;;;;;;6239727;22;20027;-80
2022/07/21 05:32:15;;;;;;;40.47;28.17;;;;;;;;;;6189729;22;20020;-79
2022/07/21 05:34:53;;;;;;;42.80;29.42;;;;;;;;;;6237854;22;20059;-81
2022/07/21 05:37:27;;;;;;;40.45;29.10;;;;;;;;;;6266582;22;20020;-81
2022/07/21 05:39:53;;;;;;;;;;;;;;;;;;6239855;22;20078;-80
2022/07/21 05:42:19;;;;;;;41.60;30.17;;;;;;;;;;6213292;22;19929;-80
2022/07/21 05:44:51;;;;;;;39.05;29.33;;;;;;;;;;6266659;22;20043;-80
2022/07/21 05:47:17;;;;;;;44.88;32.65;;;;;;;;;;6237843;22;20106;-79
2022/07/21 05:49:44;;;;;;;39.95;31.08;;;;;;;;;;6266745;22;20019;-81
2022/07/21 05:52:10;;;;;;;45.75;31.95;;;;;;;;;;6267363;22;20047;-80
2022/07/21 05:54:36;;;;;;;41.75;29.75;;;;;;;;;;6276965;22;20206;-81
2022/07/21 05:57:05;;;;;;;36.50;30.08;;;;;;;;;;6244974;22;20019;-81
2022/07/21 05:59:32;;;;;;;42.97;31.45;;;;;;;;;;6239964;22;20015;-82
2022/07/21 06:01:59;;;;;;;42.97;32.85;;;;;;;;;;6266968;22;20016;-82
2022/07/21 06:04:43;;;;;;;42.03;32.90;;;;;;;;;;6238930;22;20168;-81
2022/07/21 06:07:10;;;;;;;39.92;30.88;;;;;;;;;;6264494;22;20075;-81
2022/07/21 06:09:36;;;;;;;45.33;32.50;;;;;;;;;;6263864;22;20455;-80
2022/07/21 06:12:02;;;;;;;39.50;31.63;;;;;;;;;;6263443;22;20129;-80
2022/07/21 06:14:28;;;;;;;40.03;31.58;;;;;;;;;;6264136;22;20019;-80
2022/07/21 06:17:02;;;;;;;40.35;32.92;;;;;;;;;;6212245;22;20016;-80
2022/07/21 06:19:28;;;;;;;37.47;33.38;;;;;;;;;;6263832;22;20016;-81
2022/07/21 06:21:54;;;;;;;44.80;33.50;;;;;;;;;;6238959;22;20515;-80
2022/07/21 06:24:22;;;;;;;35.75;30.33;;;;;;;;;;6266399;22;20016;-81
2022/07/21 06:27:00;;;;;;;33.40;29.70;;;;;;;;;;6239868;22;20074;-80
2022/07/21 06:29:37;;;;;;;;;;;;;;;;;;;;;
2022/07/21 06:32:11;;;;;;;35.92;30.35;;;;;;;;;;6237184;22;20023;-79
2022/07/21 06:34:37;;;;;;;38.08;31.92;;;;;;;;;;6240062;22;20019;-79
2022/07/21 06:37:03;;;;;;;42.05;31.73;;;;;;;;;;6267579;22;20022;-80
2022/07/21 06:39:29;;;;;;;35.70;31.80;;;;;;;;;;6265776;22;20124;-80
2022/07/21 06:41:56;;;;;;;33.95;30.00;;;;;;;;;;6239403;22;20026;-80
2022/07/21 06:44:24;;;;;;;35.30;31.40;;;;;;;;;;6265883;22;20016;-80
2022/07/21 06:46:51;;;;;;;33.22;29.63;;;;;;;;;;6266427;22;20015;-80
2022/07/21 06:49:17;;;;;;;32.80;28.15;;;;;;;;;;6239221;22;20110;-80
2022/07/21 06:51:43;;;;;;;32.10;28.40;;;;;;;;;;6240358;22;20542;-80
2022/07/21 06:54:09;;;;;;;30.02;26.75;;;;;;;;;;6240013;22;20031;-80
2022/07/21 06:56:35;;;;;;;30.48;25.58;;;;;;;;;;6266479;22;20447;-79
2022/07/21 06:59:01;;;;;;;28.75;25.70;;;;;;;;;;6266491;22;20460;-80
2022/07/21 07:01:27;;;;;;;24.98;22.38;;;;;;;;;;6266772;22;20102;-80
2022/07/21 07:03:53;;;;;;;24.90;22.35;;;;;;;;;;6266702;22;20020;-79
2022/07/21 07:06:21;;;;;;;25.33;22.63;;;;;;;;;;6240073;22;20822;-79
2022/07/21 07:08:47;;;;;;;24.92;21.95;;;;;;;;;;6266363;22;20015;-79
2022/07/21 07:11:13;;;;;;;25.48;22.83;;;;;;;;;;6239206;22;20055;-77
2022/07/21 07:13:39;;;;;;;23.38;20.98;;;;;;;;;;6266217;22;20019;-79
2022/07/21 07:16:05;;;;;;;22.17;19.80;;;;;;;;;;6240993;22;20023;-79
2022/07/21 07:18:32;;;;;;;26.00;22.98;;;;;;;;;;6270650;22;20015;-79
2022/07/21 07:20:58;;;;;;;24.58;20.02;;;;;;;;;;6276340;22;20020;-78
2022/07/21 07:23:24;;;;;;;24.27;21.02;;;;;;;;;;6255400;22;20023;-79
2022/07/21 07:25:50;;;;;;;25.15;19.70;;;;;;;;;;6250933;22;20011;-79
2022/07/21 07:28:16;;;;;;;21.98;19.38;;;;;;;;;;6283233;22;20046;-79
2022/07/21 07:30:42;;;;;;;23.88;21.35;;;;;;;;;;6245333;22;20035;-79
2022/07/21 07:33:08;;;;;;;26.80;23.90;;;;;;;;;;6270612;22;20047;-80
2022/07/21 07:35:34;;;;;;;27.23;24.33;;;;;;;;;;6217103;22;20455;-79
2022/07/21 07:38:03;;;;;;;29.90;22.50;;;;;;;;;;6241463;22;20020;-79
2022/07/21 07:40:29;;;;;;;27.70;24.55;;;;;;;;;;6268301;22;20019;-79
2022/07/21 07:42:55;;;;;;;27.25;24.45;;;;;;;;;;6267357;22;20024;-79
2022/07/21 07:45:22;;;;;;;26.27;23.48;;;;;;;;;;6240562;22;20065;-80
2022/07/21 07:47:54;;;;;;;29.35;25.60;;;;;;;;;;6241144;22;20023;-78
2022/07/21 07:50:20;;;;;;;30.33;25.92;;;;;;;;;;6239395;22;20099;-79
2022/07/21 07:52:47;;;;;;;28.73;25.92;;;;;;;;;;6238849;22;20019;-79
2022/07/21 07:55:14;;;;;;;28.17;25.23;;;;;;;;;;6238451;22;20069;-79
2022/07/21 07:57:42;;;;;;;27.92;24.92;;;;;;;;;;6238935;22;20490;-79
2022/07/21 08:00:10;;;;;;;29.77;25.80;;;;;;;;;;6238152;22;20019;-79
2022/07/21 08:02:36;;;;;;;30.08;26.10;;;;;;;;;;6238445;22;20016;-79
2022/07/21 08:05:06;;;;;;;29.70;26.52;;;;;;;;;;6266304;22;20012;-79
2022/07/21 08:07:32;;;;;;;28.00;25.05;;;;;;;;;;6238471;22;20023;-80
2022/07/21 08:09:59;;;;;;;28.23;25.33;;;;;;;;;;6237907;22;20089;-79
2022/07/21 08:12:25;;;;;;;28.05;25.13;;;;;;;;;;6237535;22;20050;-80
2022/07/21 08:14:51;;;;;;;32.53;27.55;;;;;;;;;;6238224;22;20023;-79
2022/07/21 08:17:17;;;;;;;33.13;29.52;;;;;;;;;;6238104;22;20110;-81
2022/07/21 08:20:09;;;;;;;39.28;34.28;;;;;;;;;;6236289;22;20020;-80
2022/07/21 08:22:35;;;;;;;38.60;34.05;;;;;;;;;;6265167;22;20019;-80
2022/07/21 08:25:01;;;;;;;39.05;34.75;;;;;;;;;;6265479;22;20051;-80
2022/07/21 08:27:27;;;;;;;43.15;37.78;;;;;;;;;;6263328;22;20321;-80
2022/07/21 08:29:53;;;;;;;42.30;34.47;;;;;;;;;;6238795;22;20441;-81
2022/07/21 08:32:20;;;;;;;43.88;35.88;;;;;;;;;;6266025;22;20104;-81
2022/07/21 08:34:46;;;;;;;54.50;40.47;;;;;;;;;;6238864;22;20134;-81
2022/07/21 08:37:12;;;;;;;43.65;38.60;;;;;;;;;;6264402;22;20079;-81
2022/07/21 08:39:38;;;;;;;50.55;39.78;;;;;;;;;;6265992;22;20054;-82
2022/07/21 08:42:11;;;;;;;45.40;40.20;;;;;;;;;;6265415;22;20447;-82
2022/07/21 08:44:38;;;;;;;46.50;40.05;;;;;;;;;;6267432;22;20469;-79
2022/07/21 08:47:05;;;;;;;40.80;36.38;;;;;;;;;;6267750;22;20363;-80
2022/07/21 08:49:34;;;;;;;43.97;39.25;;;;;;;;;;6241052;22;20019;-81
2022/07/21 08:52:00;;;;;;;38.85;34.70;;;;;;;;;;6237502;22;20019;-80
2022/07/21 08:54:32;;;;;;;41.42;37.22;;;;;;;;;;6236402;22;20078;-82
2022/07/21 08:56:59;;;;;;;40.25;35.03;;;;;;;;;;6237492;22;20034;-81
2022/07/21 08:59:26;;;;;;;40.13;35.78;;;;;;;;;;6266215;22;20800;-80
2022/07/21 09:01:52;;;;;;;37.67;33.60;;;;;;;;;;6265707;22;20095;-84
2022/07/21 09:04:29;;;;;;;38.53;34.55;;;;;;;;;;6263499;22;20070;-81
2022/07/21 09:07:02;;;;;;;35.88;32.05;;;;;;;;;;6264310;22;20008;-81
2022/07/21 09:09:30;;;;;;;35.63;32.13;;;;;;;;;;6265128;22;20023;-81
2022/07/21 09:11:59;;;;;;;35.85;31.92;;;;;;;;;;6265975;22;20012;-83
2022/07/21 09:14:35;;;;;;;36.00;32.50;;;;;;;;;;6267416;22;20019;-80
2022/07/21 09:17:02;;;;;;;35.95;32.45;;;;;;;;;;6267288;22;20016;-81
2022/07/21 09:19:28;;;;;;;32.45;29.10;;;;;;;;;;6238418;22;20012;-80
2022/07/21 09:21:58;;;;;;;35.00;31.00;;;;;;;;;;6267857;22;20019;-80
2022/07/21 09:24:39;;;;;;;31.95;28.80;;;;;;;;;;6267288;22;20015;-81
2022/07/21 09:27:07;;;;;;;31.58;28.20;;;;;;;;;;6266311;22;20015;-81
2022/07/21 09:29:40;;;;;;;33.78;29.98;;;;;;;;;;6240680;22;20456;-80
2022/07/21 09:32:14;;;;;;;33.42;29.90;;;;;;;;;;6215513;22;20023;-80
2022/07/21 09:34:40;;;;;;;30.40;27.33;;;;;;;;;;6267090;22;20312;-81
2022/07/21 09:37:09;;;;;;;28.33;25.42;;;;;;;;;;6267087;22;20051;-80
2022/07/21 09:39:45;;;;;;;28.50;25.55;;;;;;;;;;6266771;22;20038;-80
2022/07/21 09:42:17;;;;;;;28.45;25.70;;;;;;;;;;6267106;22;20049;-79
2022/07/21 09:44:48;;;;;;;29.02;26.02;;;;;;;;;;6239930;22;20066;-80
2022/07/21 09:47:15;;;;;;;26.80;24.10;;;;;;;;;;6239037;22;20019;-79
2022/07/21 09:49:41;;;;;;;22.77;20.65;;;;;;;;;;6266563;22;20016;-79
2022/07/21 09:52:31;;;;;;;23.65;21.27;;;;;;;;;;6239264;22;20020;-80
2022/07/21 09:55:14;;;;;;;25.23;22.52;;;;;;;;;;6243646;22;20026;-79
2022/07/21 09:57:40;;;;;;;21.53;19.43;;;;;;;;;;6268739;22;20500;-79
2022/07/21 10:00:08;;;;;;;21.05;18.23;;;;;;;;;;6269358;22;20081;-80
2022/07/21 10:02:34;;;;;;;20.15;17.02;;;;;;;;;;6270477;22;20024;-79
2022/07/21 10:05:14;;;;;;;20.50;18.25;;;;;;;;;;6219586;22;20035;-79
2022/07/21 10:07:41;;;;;;;18.83;16.92;;;;;;;;;;6269211;22;20020;-78
2022/07/21 10:10:11;;;;;;;21.05;18.95;;;;;;;;;;6267204;22;20309;-79
2022/07/21 10:12:37;;;;;;;21.15;18.95;;;;;;;;;;6268682;22;20031;-80
2022/07/21 10:15:03;;;;;;;21.90;19.67;;;;;;;;;;6268251;22;20069;-80
2022/07/21 10:17:29;;;;;;;23.13;18.90;;;;;;;;;;6268893;22;20016;-79
2022/07/21 10:20:11;;;;;;;21.52;19.23;;;;;;;;;;6268658;22;20034;-79
2022/07/21 10:22:57;;;;;;;21.58;19.48;;;;;;;;;;6269375;22;20023;-80
2022/07/21 10:25:23;;;;;;;22.02;19.83;;;;;;;;;;6240329;22;20024;-80
2022/07/21 10:28:08;;;;;;;22.98;20.63;;;;;;;;;;6267207;22;20043;-79
2022/07/21 10:30:54;;;;;;;22.30;20.08;;;;;;;;;;6239428;22;20142;-80
2022/07/21 10:33:21;;;;;;;23.17;20.88;;;;;;;;;;6266305;22;20812;-80
2022/07/21 10:35:48;;;;;;;20.75;18.73;;;;;;;;;;6266343;22;20027;-80
2022/07/21 10:38:33;;;;;;;22.60;20.30;;;;;;;;;;6266877;22;20024;-80
2022/07/21 10:41:19;;;;;;;22.95;20.55;;;;;;;;;;6265757;22;20108;-80
2022/07/21 10:43:45;;;;;;;21.27;19.17;;;;;;;;;;6264233;22;20460;-81
2022/07/21 10:46:32;;;;;;;23.30;20.90;;;;;;;;;;6266011;22;20027;-80
2022/07/21 10:48:59;;;;;;;24.50;20.67;;;;;;;;;;6266221;22;20182;-80
2022/07/21 10:51:25;;;;;;;25.17;21.95;;;;;;;;;;6267384;22;20022;-78
2022/07/21 10:54:10;;;;;;;26.05;23.27;;;;;;;;;;6240665;22;20507;-79
2022/07/21 10:56:36;;;;;;;27.27;22.50;;;;;;;;;;6268606;22;20020;-80
2022/07/21 10:59:03;;;;;;;26.45;23.75;;;;;;;;;;6272986;22;20042;-80
2022/07/21 11:01:29;;;;;;;25.35;22.73;;;;;;;;;;6280545;22;20012;-79
2022/07/21 11:04:09;;;;;;;25.52;22.92;;;;;;;;;;6278241;22;20019;-79
2022/07/21 11:06:36;;;;;;;25.42;22.75;;;;;;;;;;6282973;22;20031;-80
2022/07/21 11:09:03;;;;;;;28.05;23.20;;;;;;;;;;6285835;22;20019;-80
2022/07/21 11:11:40;;;;;;;26.95;24.20;;;;;;;;;;6229101;22;20070;-79
2022/07/21 11:14:14;;;;;;;28.33;25.42;;;;;;;;;;6251480;22;20023;-79
2022/07/21 11:16:44;;;;;;;29.40;26.30;;;;;;;;;;6270690;22;20020;-79
2022/07/21 11:19:28;;;;;;;30.98;27.38;;;;;;;;;;6262539;22;20422;-80
2022/07/21 11:21:56;;;;;;;31.73;28.38;;;;;;;;;;6239465;22;20402;-80
2022/07/21 11:24:23;;;;;;;33.67;29.00;;;;;;;;;;6265924;22;20047;-80
2022/07/21 11:27:00;;;;;;;33.45;30.02;;;;;;;;;;6266129;22;20043;-80
2022/07/21 11:29:27;;;;;;;32.25;29.02;;;;;;;;;;6239174;22;20020;-80
2022/07/21 11:31:53;;;;;;;35.10;30.98;;;;;;;;;;6267133;22;20012;-80
2022/07/21 11:34:20;;;;;;;32.70;29.38;;;;;;;;;;6266175;22;20019;-79
2022/07/21 11:36:46;;;;;;;35.50;29.98;;;;;;;;;;6265828;22;20049;-79
2022/07/21 11:39:14;;;;;;;34.58;30.95;;;;;;;;;;6265295;22;20023;-80
2022/07/21 11:41:41;;;;;;;34.30;30.60;;;;;;;;;;6238745;22;20080;-79
2022/07/21 11:44:11;;;;;;;33.55;30.02;;;;;;;;;;6265477;22;20107;-79
2022/07/21 11:46:45;;;;;;;34.92;31.23;;;;;;;;;;6265832;22;20027;-80
2022/07/21 11:49:11;;;;;;;36.97;33.08;;;;;;;;;;6238363;22;20027;-80
2022/07/21 11:51:37;;;;;;;38.67;34.67;;;;;;;;;;6238574;22;20020;-80
2022/07/21 11:54:03;;;;;;;39.25;35.15;;;;;;;;;;6239188;22;20023;-79
2022/07/21 11:56:36;;;;;;;38.05;34.08;;;;;;;;;;6263816;22;20460;-80
2022/07/21 11:59:10;;;;;;;38.92;34.03;;;;;;;;;;6237033;22;20023;-80
2022/07/21 12:01:56;;;;;;;40.50;36.30;;;;;;;;;;6234743;22;20024;-80
2022/07/21 12:04:29;;;;;;;37.80;33.90;;;;;;;;;;6264745;22;20525;-80
2022/07/21 12:06:56;;;;;;;36.20;32.42;;;;;;;;;;6265025;22;20020;-79
2022/07/21 12:09:22;;;;;;;34.03;29.80;;;;;;;;;;6265303;22;20038;-79
2022/07/21 12:11:48;;;;;;;33.35;29.95;;;;;;;;;;6238804;22;20456;-79
2022/07/21 12:14:15;;;;;;;34.70;29.05;;;;;;;;;;6237351;22;20024;-80
2022/07/21 12:16:51;;;;;;;35.90;29.42;;;;;;;;;;6263730;22;20024;-79
2022/07/21 12:19:18;;;;;;;30.88;26.67;;;;;;;;;;6264598;22;20422;-79
2022/07/21 12:21:49;;;;;;;28.42;25.55;;;;;;;;;;6241203;22;21608;-79
2022/07/21 12:24:16;;;;;;;27.55;24.55;;;;;;;;;;6241638;22;20019;-78
2022/07/21 12:26:42;;;;;;;24.90;22.30;;;;;;;;;;6267505;22;20049;-79
2022/07/21 12:29:08;;;;;;;22.38;20.05;;;;;;;;;;6266140;22;20106;-78
2022/07/21 12:31:36;;;;;;;24.67;20.17;;;;;;;;;;6241824;22;20035;-80
2022/07/21 12:34:15;;;;;;;20.92;18.65;;;;;;;;;;6268272;22;20359;-79
2022/07/21 12:36:44;;;;;;;23.85;19.20;;;;;;;;;;6240944;22;20509;-79
2022/07/21 12:42:11;;;;;;;19.17;17.00;;;;;;;;;;6268043;22;20063;-79
2022/07/21 12:44:37;;;;;;;17.80;15.57;;;;;;;;;;6267448;22;20027;-78
2022/07/21 12:47:33;;;;;;;20.67;15.45;;;;;;;;;;6266849;22;20023;-79
2022/07/21 12:50:07;;;;;;;21.25;14.50;;;;;;;;;;6205055;22;20032;-79
2022/07/21 12:52:33;;;;;;;16.08;14.07;;;;;;;;;;6268720;22;20020;-79
2022/07/21 12:55:00;;;;;;;14.80;11.95;;;;;;;;;;6268772;22;20026;-79
2022/07/21 12:57:29;;;;;;;11.80;9.25;;;;;;;;;;6239892;22;20410;-78
2022/07/21 13:00:05;;;;;;;17.58;12.57;;;;;;;;;;6268145;22;20442;-80
2022/07/21 13:02:45;;;;;;;16.33;14.77;;;;;;;;;;6268156;22;20037;-79
2022/07/21 13:05:12;;;;;;;19.15;16.80;;;;;;;;;;6241836;22;20317;-81
2022/07/21 13:07:38;;;;;;;19.27;17.27;;;;;;;;;;6242622;22;20023;-79
2022/07/21 13:10:04;;;;;;;20.88;17.33;;;;;;;;;;6243859;22;20047;-79
2022/07/21 13:12:31;;;;;;;20.85;18.65;;;;;;;;;;6247149;22;20024;-79
2022/07/21 13:14:58;;;;;;;20.15;17.73;;;;;;;;;;6197574;22;20028;-80
2022/07/21 13:17:24;;;;;;;20.33;18.42;;;;;;;;;;6251869;22;20073;-81
2022/07/21 13:19:54;;;;;;;20.80;18.80;;;;;;;;;;6268322;22;20506;-80
2022/07/21 13:22:28;;;;;;;20.48;18.42;;;;;;;;;;6239911;22;20417;-82
2022/07/21 13:24:55;;;;;;;18.40;16.65;;;;;;;;;;6241424;22;20012;-81
2022/07/21 13:27:21;;;;;;;18.15;15.80;;;;;;;;;;6268050;22;20012;-81
2022/07/21 13:29:47;;;;;;;17.30;15.35;;;;;;;;;;6267977;22;20023;-80
2022/07/21 13:32:19;;;;;;;17.23;15.52;;;;;;;;;;6270870;22;20016;-81
2022/07/21 13:34:45;;;;;;;16.90;15.30;;;;;;;;;;6243868;22;20078;-80
2022/07/21 13:37:11;;;;;;;16.92;15.13;;;;;;;;;;6270194;22;20012;-80
2022/07/21 13:39:40;;;;;;;15.88;14.27;;;;;;;;;;6242507;22;20444;-80
2022/07/21 13:42:07;;;;;;;16.98;14.93;;;;;;;;;;6269943;22;20029;-80
2022/07/21 13:44:33;;;;;;;15.63;14.02;;;;;;;;;;6270161;22;20062;-80
2022/07/21 13:46:59;;;;;;;17.38;13.85;;;;;;;;;;6242882;22;20051;-80
2022/07/21 13:49:26;;;;;;;14.38;12.73;;;;;;;;;;6270262;22;20131;-80
2022/07/21 13:51:52;;;;;;;13.80;11.95;;;;;;;;;;6270061;22;20019;-81
2022/07/21 13:54:18;;;;;;;13.10;11.55;;;;;;;;;;6269517;22;20016;-80
2022/07/21 13:56:44;;;;;;;15.57;13.88;;;;;;;;;;6268172;22;20107;-80
2022/07/21 13:59:11;;;;;;;20.70;15.70;;;;;;;;;;6217602;22;20074;-81
2022/07/21 14:01:37;;;;;;;24.30;17.65;;;;;;;;;;6270791;22;20058;-81
2022/07/21 14:04:03;;;;;;;23.20;12.65;;;;;;;;;;6242009;22;20023;-80
2022/07/21 14:06:29;;;;;;;10.95;9.35;;;;;;;;;;6270470;22;20538;-80
2022/07/21 14:08:56;;;;;;;11.88;8.25;;;;;;;;;;6270295;22;20016;-80
2022/07/21 14:11:23;;;;;;;8.82;7.15;;;;;;;;;;6270890;22;20020;-81
2022/07/21 14:13:50;;;;;;;8.05;6.53;;;;;;;;;;6243095;22;20023;-79
2022/07/21 14:16:16;;;;;;;7.68;6.00;;;;;;;;;;6243432;22;20019;-79
2022/07/21 14:18:42;;;;;;;6.40;5.80;;;;;;;;;;6269757;22;20055;-81
2022/07/21 14:21:09;;;;;;;7.50;6.13;;;;;;;;;;6269298;22;20019;-80
2022/07/21 14:23:35;;;;;;;7.88;5.05;;;;;;;;;;6270451;22;20115;-80
2022/07/21 14:26:01;;;;;;;6.75;4.72;;;;;;;;;;6269759;22;20016;-80
2022/07/21 14:28:27;;;;;;;6.00;4.90;;;;;;;;;;6270609;22;20436;-78
2022/07/21 14:30:53;;;;;;;4.82;4.20;;;;;;;;;;6270211;22;20019;-79
2022/07/21 14:33:20;;;;;;;6.22;4.60;;;;;;;;;;6271791;22;20016;-80
2022/07/21 14:35:46;;;;;;;5.05;4.55;;;;;;;;;;6270218;22;20395;-79